sensor_id;sensor_type;location;lat;lon;timestamp;pressure;altitude;pressure_sealevel;temperature;humidity
69766;BME280;57039;48.014;21.384;2023-02-28T01:18:44;101810.53;;;-1.77;100.00
69766;BME280;57039;48.014;21.384;2023-02-28T01:19:48;101807.09;;;-1.79;100.00
69766;BME280;57039;48.014;21.384;2023-02-28T01:20:51;101810.47;;;-1.82;100.00
69766;BME280;57039;48.014;21.384;2023-02-28T01:21:54;101815.56;;;-1.84;100.00
69766;BME280;57039;48.014;21.384;2023-02-28T01:22:57;101812.87;;;-1.91;100.00
69766;BME280;57039;48.014;21.384;2023-02-28T01:24:01;101814.72;;;-1.84;100.00
69766;BME280;57039;48.014;21.384;2023-02-28T01:25:04;101820.75;;;-1.82;100.00
69766;BME280;57039;48.014;21.384;2023-02-28T01:26:15;101821.62;;;-1.81;100.00
69766;BME280;57039;48.014;21.384;2023-02-28T01:27:19;101819.06;;;-1.81;100.00
69766;BME280;57039;48.014;21.384;2023-02-28T01:28:23;101816.34;;;-1.89;100.00
69766;BME280;57039;48.014;21.384;2023-02-28T01:29:26;101831.00;;;-1.85;100.00
69766;BME280;57039;48.014;21.384;2023-02-28T01:30:30;101828.38;;;-1.88;100.00
69766;BME280;57039;48.014;21.384;2023-02-28T01:31:33;101830.03;;;-1.90;100.00
69766;BME280;57039;48.014;21.384;2023-02-28T01:35:19;101833.41;;;-1.94;100.00
69766;BME280;57039;48.014;21.384;2023-02-28T01:36:24;101832.56;;;-1.92;100.00
69766;BME280;57039;48.014;21.384;2023-02-28T01:37:27;101828.25;;;-1.94;100.00
69766;BME280;57039;48.014;21.384;2023-02-28T01:38:31;101821.31;;;-1.98;100.00
69766;BME280;57039;48.014;21.384;2023-02-28T01:39:48;101824.91;;;-1.89;100.00
69766;BME280;57039;48.014;21.384;2023-02-28T01:40:51;101828.44;;;-1.84;100.00
69766;BME280;57039;48.014;21.384;2023-02-28T01:41:54;101832.72;;;-1.83;100.00
69766;BME280;57039;48.014;21.384;2023-02-28T01:42:57;101827.72;;;-1.75;100.00
69766;BME280;57039;48.014;21.384;2023-02-28T01:46:23;101817.59;;;-1.66;100.00
69766;BME280;57039;48.014;21.384;2023-02-28T01:47:34;101818.50;;;-1.62;100.00
69766;BME280;57039;48.014;21.384;2023-02-28T01:49:04;101821.06;;;-1.62;100.00
69766;BME280;57039;48.014;21.384;2023-02-28T01:50:13;101810.63;;;-1.71;100.00
69766;BME280;57039;48.014;21.384;2023-02-28T01:51:21;101826.22;;;-1.62;100.00
69766;BME280;57039;48.014;21.384;2023-02-28T01:52:25;101808.09;;;-1.70;100.00
69766;BME280;57039;48.014;21.384;2023-02-28T01:53:33;101829.75;;;-1.57;100.00
69766;BME280;57039;48.014;21.384;2023-02-28T01:54:37;101822.88;;;-1.58;100.00
69766;BME280;57039;48.014;21.384;2023-02-28T01:55:42;101832.25;;;-1.60;100.00
69766;BME280;57039;48.014;21.384;2023-02-28T01:56:53;101822.78;;;-1.64;100.00
69766;BME280;57039;48.014;21.384;2023-02-28T01:58:00;101819.34;;;-1.63;100.00
69766;BME280;57039;48.014;21.384;2023-02-28T01:59:05;101831.41;;;-1.59;100.00
69766;BME280;57039;48.014;21.384;2023-02-28T02:00:16;101838.31;;;-1.56;100.00
69766;BME280;57039;48.014;21.384;2023-02-28T02:01:22;101835.72;;;-1.58;100.00
69766;BME280;57039;48.014;21.384;2023-02-28T02:02:28;101833.22;;;-1.55;100.00
69766;BME280;57039;48.014;21.384;2023-02-28T02:03:31;101815.97;;;-1.61;100.00
69766;BME280;57039;48.014;21.384;2023-02-28T02:04:41;101837.59;;;-1.48;100.00
69766;BME280;57039;48.014;21.384;2023-02-28T02:05:48;101838.41;;;-1.50;100.00
69766;BME280;57039;48.014;21.384;2023-02-28T02:06:52;101841.03;;;-1.47;100.00
69766;BME280;57039;48.014;21.384;2023-02-28T02:07:56;101834.16;;;-1.47;100.00
69766;BME280;57039;48.014;21.384;2023-02-28T02:09:00;101835.12;;;-1.43;100.00
69766;BME280;57039;48.014;21.384;2023-02-28T02:10:12;101827.44;;;-1.40;100.00
69766;BME280;57039;48.014;21.384;2023-02-28T02:11:19;101836.03;;;-1.38;100.00
69766;BME280;57039;48.014;21.384;2023-02-28T02:12:50;101836.94;;;-1.36;100.00
69766;BME280;57039;48.014;21.384;2023-02-28T02:15:44;101838.56;;;-1.41;100.00
69766;BME280;57039;48.014;21.384;2023-02-28T02:27:55;101835.44;;;-1.20;100.00
69766;BME280;57039;48.014;21.384;2023-02-28T02:30:51;101838.22;;;-1.06;100.00
69766;BME280;57039;48.014;21.384;2023-02-28T02:36:33;101832.47;;;-0.87;100.00
69766;BME280;57039;48.014;21.384;2023-02-28T02:39:17;101830.81;;;-0.83;100.00
69766;BME280;57039;48.014;21.384;2023-02-28T02:40:25;101833.47;;;-0.77;100.00
69766;BME280;57039;48.014;21.384;2023-02-28T02:41:42;101833.47;;;-0.76;100.00
69766;BME280;57039;48.014;21.384;2023-02-28T02:43:08;101835.28;;;-0.72;100.00
69766;BME280;57039;48.014;21.384;2023-02-28T02:45:22;101835.38;;;-0.62;100.00
69766;BME280;57039;48.014;21.384;2023-02-28T02:46:37;101832.84;;;-0.59;100.00
69766;BME280;57039;48.014;21.384;2023-02-28T02:47:42;101844.91;;;-0.57;99.93
69766;BME280;57039;48.014;21.384;2023-02-28T02:48:46;101844.06;;;-0.54;99.75
69766;BME280;57039;48.014;21.384;2023-02-28T02:49:53;101831.22;;;-0.50;99.50
69766;BME280;57039;48.014;21.384;2023-02-28T02:51:01;101835.56;;;-0.47;99.77
69766;BME280;57039;48.014;21.384;2023-02-28T02:52:09;101843.28;;;-0.46;99.69
69766;BME280;57039;48.014;21.384;2023-02-28T02:53:17;101839.00;;;-0.45;99.24
69766;BME280;57039;48.014;21.384;2023-02-28T02:54:26;101839.03;;;-0.42;98.88
69766;BME280;57039;48.014;21.384;2023-02-28T02:55:34;101830.44;;;-0.44;98.86
69766;BME280;57039;48.014;21.384;2023-02-28T02:56:42;101843.41;;;-0.38;98.85
69766;BME280;57039;48.014;21.384;2023-02-28T02:57:59;101849.47;;;-0.33;98.94
69766;BME280;57039;48.014;21.384;2023-02-28T02:59:08;101842.63;;;-0.32;98.37
69766;BME280;57039;48.014;21.384;2023-02-28T03:00:15;101847.81;;;-0.29;98.15
69766;BME280;57039;48.014;21.384;2023-02-28T03:03:48;101842.66;;;-0.28;97.65
69766;BME280;57039;48.014;21.384;2023-02-28T03:04:54;101847.84;;;-0.25;97.18
69766;BME280;57039;48.014;21.384;2023-02-28T03:06:00;101846.16;;;-0.22;96.52
69766;BME280;57039;48.014;21.384;2023-02-28T03:07:04;101849.59;;;-0.22;96.50
69766;BME280;57039;48.014;21.384;2023-02-28T03:08:07;101838.47;;;-0.18;96.65
69766;BME280;57039;48.014;21.384;2023-02-28T03:09:24;101842.78;;;-0.15;96.93
69766;BME280;57039;48.014;21.384;2023-02-28T03:10:39;101838.50;;;-0.15;97.20
69766;BME280;57039;48.014;21.384;2023-02-28T03:11:42;101839.38;;;-0.14;97.35
69766;BME280;57039;48.014;21.384;2023-02-28T03:12:52;101834.22;;;-0.13;96.42
69766;BME280;57039;48.014;21.384;2023-02-28T03:14:04;101832.47;;;-0.15;95.82
69766;BME280;57039;48.014;21.384;2023-02-28T03:15:27;101835.97;;;-0.12;96.02
69766;BME280;57039;48.014;21.384;2023-02-28T04:12:29;101839.41;;;-0.11;94.29
69766;BME280;57039;48.014;21.384;2023-02-28T04:13:32;101851.47;;;-0.09;94.27
69766;BME280;57039;48.014;21.384;2023-02-28T04:14:35;101847.16;;;-0.08;94.27
69766;BME280;57039;48.014;21.384;2023-02-28T04:15:38;101842.88;;;-0.06;94.25
69766;BME280;57039;48.014;21.384;2023-02-28T04:16:41;101840.28;;;-0.06;94.50
69766;BME280;57039;48.014;21.384;2023-02-28T04:17:45;101838.56;;;-0.09;94.65
69766;BME280;57039;48.014;21.384;2023-02-28T04:18:48;101841.13;;;-0.10;94.52
69766;BME280;57039;48.014;21.384;2023-02-28T04:19:51;101837.72;;;-0.08;94.34
69766;BME280;57039;48.014;21.384;2023-02-28T04:20:53;101838.53;;;-0.10;94.32
69766;BME280;57039;48.014;21.384;2023-02-28T04:21:56;101839.41;;;-0.10;94.20
69766;BME280;57039;48.014;21.384;2023-02-28T04:22:59;101839.44;;;-0.08;94.22
69766;BME280;57039;48.014;21.384;2023-02-28T04:24:03;101838.56;;;-0.09;94.29
69766;BME280;57039;48.014;21.384;2023-02-28T04:25:06;101835.06;;;-0.12;94.38
69766;BME280;57039;48.014;21.384;2023-02-28T04:26:15;101845.41;;;-0.09;94.52
69766;BME280;57039;48.014;21.384;2023-02-28T04:27:18;101839.41;;;-0.11;94.58
69766;BME280;57039;48.014;21.384;2023-02-28T04:28:21;101835.94;;;-0.13;94.38
69766;BME280;57039;48.014;21.384;2023-02-28T04:29:28;101841.94;;;-0.13;94.55
69766;BME280;57039;48.014;21.384;2023-02-28T04:30:32;101842.78;;;-0.15;94.46
69766;BME280;57039;48.014;21.384;2023-02-28T04:31:35;101835.91;;;-0.16;94.67
69766;BME280;57039;48.014;21.384;2023-02-28T04:32:38;101838.47;;;-0.18;94.86
69766;BME280;57039;48.014;21.384;2023-02-28T04:33:41;101844.50;;;-0.17;94.97
69766;BME280;57039;48.014;21.384;2023-02-28T04:34:44;101841.06;;;-0.16;94.95
69766;BME280;57039;48.014;21.384;2023-02-28T04:35:47;101835.91;;;-0.18;94.89
69766;BME280;57039;48.014;21.384;2023-02-28T04:36:50;101835.03;;;-0.15;94.92
69766;BME280;57039;48.014;21.384;2023-02-28T04:38:15;101822.03;;;-0.25;94.89
69766;BME280;57039;48.014;21.384;2023-02-28T04:39:19;101834.22;;;-0.14;95.09
69766;BME280;57039;48.014;21.384;2023-02-28T04:40:22;101838.50;;;-0.13;95.26
69766;BME280;57039;48.014;21.384;2023-02-28T04:41:25;101835.97;;;-0.12;95.32
69766;BME280;57039;48.014;21.384;2023-02-28T04:42:30;101837.66;;;-0.14;95.34
69766;BME280;57039;48.014;21.384;2023-02-28T04:43:38;101839.38;;;-0.14;95.54
69766;BME280;57039;48.014;21.384;2023-02-28T04:44:41;101841.06;;;-0.16;95.80
69766;BME280;57039;48.014;21.384;2023-02-28T04:45:44;101838.50;;;-0.13;95.89
69766;BME280;57039;48.014;21.384;2023-02-28T04:46:48;101841.13;;;-0.12;96.04
69766;BME280;57039;48.014;21.384;2023-02-28T04:47:51;101833.37;;;-0.12;96.03
69766;BME280;57039;48.014;21.384;2023-02-28T04:48:54;101829.91;;;-0.12;96.11
69766;BME280;57039;48.014;21.384;2023-02-28T04:49:57;101833.34;;;-0.13;96.12
69766;BME280;57039;48.014;21.384;2023-02-28T04:51:05;101831.62;;;-0.13;96.29
69766;BME280;57039;48.014;21.384;2023-02-28T04:52:08;101837.69;;;-0.11;96.37
69766;BME280;57039;48.014;21.384;2023-02-28T04:53:12;101838.53;;;-0.10;96.39
69766;BME280;57039;48.014;21.384;2023-02-28T04:54:15;101840.25;;;-0.09;96.55
69766;BME280;57039;48.014;21.384;2023-02-28T04:55:19;101845.41;;;-0.09;96.97
69766;BME280;57039;48.014;21.384;2023-02-28T04:56:22;101842.84;;;-0.09;97.30
69766;BME280;57039;48.014;21.384;2023-02-28T04:57:25;101847.16;;;-0.07;97.19
69766;BME280;57039;48.014;21.384;2023-02-28T04:58:29;101836.81;;;-0.10;97.13
69766;BME280;57039;48.014;21.384;2023-02-28T04:59:32;101839.44;;;-0.08;97.27
69766;BME280;57039;48.014;21.384;2023-02-28T05:00:36;101843.69;;;-0.10;97.29
69766;BME280;57039;48.014;21.384;2023-02-28T05:01:39;101842.00;;;-0.07;97.34
69766;BME280;57039;48.014;21.384;2023-02-28T05:02:42;101843.72;;;-0.07;97.31
69766;BME280;57039;48.014;21.384;2023-02-28T05:03:45;101839.44;;;-0.08;97.53
69766;BME280;57039;48.014;21.384;2023-02-28T05:04:48;101841.97;;;-0.11;97.91
69766;BME280;57039;48.014;21.384;2023-02-28T05:05:51;101836.78;;;-0.13;98.06
69766;BME280;57039;48.014;21.384;2023-02-28T05:06:54;101843.66;;;-0.15;98.08
69766;BME280;57039;48.014;21.384;2023-02-28T05:07:58;101841.94;;;-0.14;98.12
69766;BME280;57039;48.014;21.384;2023-02-28T05:09:00;101844.50;;;-0.17;98.32
69766;BME280;57039;48.014;21.384;2023-02-28T05:10:04;101845.34;;;-0.17;98.39
69766;BME280;57039;48.014;21.384;2023-02-28T05:11:17;101847.91;;;-0.18;98.56
69766;BME280;57039;48.014;21.384;2023-02-28T05:12:20;101850.47;;;-0.18;98.69
69766;BME280;57039;48.014;21.384;2023-02-28T05:13:23;101850.50;;;-0.15;98.97
69766;BME280;57039;48.014;21.384;2023-02-28T05:14:26;101856.53;;;-0.16;99.00
69766;BME280;57039;48.014;21.384;2023-02-28T05:15:29;101849.63;;;-0.19;98.93
69766;BME280;57039;48.014;21.384;2023-02-28T05:16:32;101853.91;;;-0.19;98.90
69766;BME280;57039;48.014;21.384;2023-02-28T05:17:35;101855.66;;;-0.15;98.95
69766;BME280;57039;48.014;21.384;2023-02-28T05:18:38;101849.69;;;-0.14;98.90
69766;BME280;57039;48.014;21.384;2023-02-28T05:19:55;101857.41;;;-0.13;98.80
69766;BME280;57039;48.014;21.384;2023-02-28T05:21:32;101854.88;;;-0.11;98.98
69766;BME280;57039;48.014;21.384;2023-02-28T05:22:37;101863.41;;;-0.15;98.70
69766;BME280;57039;48.014;21.384;2023-02-28T05:23:40;101865.16;;;-0.13;98.62
69766;BME280;57039;48.014;21.384;2023-02-28T05:24:56;101866.88;;;-0.15;98.37
69766;BME280;57039;48.014;21.384;2023-02-28T05:25:59;101871.09;;;-0.18;98.59
69766;BME280;57039;48.014;21.384;2023-02-28T05:27:02;101869.38;;;-0.19;98.35
69766;BME280;57039;48.014;21.384;2023-02-28T05:28:07;101850.37;;;-0.28;98.42
69766;BME280;57039;48.014;21.384;2023-02-28T05:29:11;101876.25;;;-0.18;98.78
69766;BME280;57039;48.014;21.384;2023-02-28T05:30:14;101868.44;;;-0.28;99.56
69766;BME280;57039;48.014;21.384;2023-02-28T05:31:17;101876.06;;;-0.37;99.93
69766;BME280;57039;48.014;21.384;2023-02-28T05:32:20;101858.81;;;-0.42;100.00
69766;BME280;57039;48.014;21.384;2023-02-28T05:33:23;101872.72;;;-0.30;100.00
69766;BME280;57039;48.014;21.384;2023-02-28T05:34:26;101872.75;;;-0.25;99.85
69766;BME280;57039;48.014;21.384;2023-02-28T05:35:30;101870.22;;;-0.22;99.59
69766;BME280;57039;48.014;21.384;2023-02-28T05:36:33;101874.53;;;-0.19;99.50
69766;BME280;57039;48.014;21.384;2023-02-28T05:37:37;101872.00;;;-0.16;99.37
69766;BME280;57039;48.014;21.384;2023-02-28T05:38:40;101872.03;;;-0.13;99.67
69766;BME280;57039;48.014;21.384;2023-02-28T05:39:43;101872.88;;;-0.14;99.85
69766;BME280;57039;48.014;21.384;2023-02-28T05:40:46;101879.75;;;-0.16;99.91
69766;BME280;57039;48.014;21.384;2023-02-28T05:41:50;101878.84;;;-0.20;100.00
69766;BME280;57039;48.014;21.384;2023-02-28T05:42:53;101882.25;;;-0.21;100.00
69766;BME280;57039;48.014;21.384;2023-02-28T05:43:57;101878.03;;;-0.16;100.00
69766;BME280;57039;48.014;21.384;2023-02-28T05:45:00;101882.31;;;-0.16;100.00
69766;BME280;57039;48.014;21.384;2023-02-28T05:46:09;101875.31;;;-0.28;100.00
69766;BME280;57039;48.014;21.384;2023-02-28T05:47:12;101884.87;;;-0.19;100.00
69766;BME280;57039;48.014;21.384;2023-02-28T05:48:19;101891.75;;;-0.20;100.00
69766;BME280;57039;48.014;21.384;2023-02-28T05:49:23;101889.12;;;-0.21;100.00
69766;BME280;57039;48.014;21.384;2023-02-28T05:50:26;101889.12;;;-0.23;100.00
69766;BME280;57039;48.014;21.384;2023-02-28T05:51:29;101884.81;;;-0.21;100.00
69766;BME280;57039;48.014;21.384;2023-02-28T05:52:33;101888.31;;;-0.19;100.00
69766;BME280;57039;48.014;21.384;2023-02-28T05:53:36;101885.78;;;-0.14;100.00
69766;BME280;57039;48.014;21.384;2023-02-28T05:54:39;101874.66;;;-0.12;100.00
69766;BME280;57039;48.014;21.384;2023-02-28T05:55:42;101878.09;;;-0.11;100.00
69766;BME280;57039;48.014;21.384;2023-02-28T05:56:50;101881.59;;;-0.03;100.00
69766;BME280;57039;48.014;21.384;2023-02-28T05:57:53;101873.06;;;0.01;100.00
69766;BME280;57039;48.014;21.384;2023-02-28T05:58:56;101872.22;;;0.05;100.00
69766;BME280;57039;48.014;21.384;2023-02-28T05:59:59;101874.81;;;0.05;100.00
69766;BME280;57039;48.014;21.384;2023-02-28T06:01:24;101875.69;;;0.07;100.00
69766;BME280;57039;48.014;21.384;2023-02-28T06:02:27;101874.03;;;0.12;100.00
69766;BME280;57039;48.014;21.384;2023-02-28T06:03:30;101871.44;;;0.14;100.00
69766;BME280;57039;48.014;21.384;2023-02-28T06:04:33;101873.25;;;0.21;100.00
69766;BME280;57039;48.014;21.384;2023-02-28T06:05:36;101872.44;;;0.25;100.00
69766;BME280;57039;48.014;21.384;2023-02-28T06:06:41;101875.88;;;0.26;100.00
69766;BME280;57039;48.014;21.384;2023-02-28T06:07:44;101875.91;;;0.29;100.00
69766;BME280;57039;48.014;21.384;2023-02-28T06:08:47;101875.94;;;0.32;100.00
69766;BME280;57039;48.014;21.384;2023-02-28T06:09:50;101875.09;;;0.36;100.00
69766;BME280;57039;48.014;21.384;2023-02-28T06:10:53;101878.56;;;0.38;100.00
69766;BME280;57039;48.014;21.384;2023-02-28T06:12:00;101876.88;;;0.41;100.00
69766;BME280;57039;48.014;21.384;2023-02-28T06:13:06;101871.69;;;0.41;99.96
69766;BME280;57039;48.014;21.384;2023-02-28T06:14:16;101876.03;;;0.44;99.60
69766;BME280;57039;48.014;21.384;2023-02-28T06:15:20;101874.34;;;0.48;99.38
69766;BME280;57039;48.014;21.384;2023-02-28T06:16:24;101873.53;;;0.53;99.17
69766;BME280;57039;48.014;21.384;2023-02-28T06:17:27;101872.69;;;0.54;98.84
69766;BME280;57039;48.014;21.384;2023-02-28T06:18:30;101875.28;;;0.56;98.44
69766;BME280;57039;48.014;21.384;2023-02-28T06:19:37;101879.59;;;0.58;98.04
69766;BME280;57039;48.014;21.384;2023-02-28T06:20:42;101877.87;;;0.57;97.77
69766;BME280;57039;48.014;21.384;2023-02-28T06:21:49;101881.31;;;0.59;97.24
69766;BME280;57039;48.014;21.384;2023-02-28T06:22:52;101880.47;;;0.57;96.70
69766;BME280;57039;48.014;21.384;2023-02-28T06:23:57;101881.28;;;0.56;96.44
69766;BME280;57039;48.014;21.384;2023-02-28T06:25:01;101884.72;;;0.54;96.15
69766;BME280;57039;48.014;21.384;2023-02-28T06:26:04;101883.91;;;0.58;96.06
69766;BME280;57039;48.014;21.384;2023-02-28T06:27:07;101883.03;;;0.57;96.02
69766;BME280;57039;48.014;21.384;2023-02-28T06:28:10;101869.22;;;0.52;95.86
69766;BME280;57039;48.014;21.384;2023-02-28T06:29:14;101882.16;;;0.57;95.89
69766;BME280;57039;48.014;21.384;2023-02-28T06:30:21;101877.87;;;0.59;96.08
69766;BME280;57039;48.014;21.384;2023-02-28T06:31:27;101881.28;;;0.56;95.77
69766;BME280;57039;48.014;21.384;2023-02-28T06:32:32;101877.84;;;0.56;95.50
69766;BME280;57039;48.014;21.384;2023-02-28T06:33:37;101883.09;;;0.63;95.91
69766;BME280;57039;48.014;21.384;2023-02-28T06:34:41;101887.41;;;0.63;95.98
69766;BME280;57039;48.014;21.384;2023-02-28T06:35:46;101878.75;;;0.59;96.06
69766;BME280;57039;48.014;21.384;2023-02-28T06:36:50;101878.78;;;0.64;96.22
69766;BME280;57039;48.014;21.384;2023-02-28T06:37:54;101887.41;;;0.64;95.95
69766;BME280;57039;48.014;21.384;2023-02-28T06:38:58;101891.69;;;0.64;95.92
69766;BME280;57039;48.014;21.384;2023-02-28T06:40:02;101890.00;;;0.67;96.20
69766;BME280;57039;48.014;21.384;2023-02-28T06:41:07;101887.44;;;0.69;96.30
69766;BME280;57039;48.014;21.384;2023-02-28T06:42:10;101883.16;;;0.70;96.29
69766;BME280;57039;48.014;21.384;2023-02-28T06:43:13;101887.44;;;0.69;96.11
69766;BME280;57039;48.014;21.384;2023-02-28T06:44:17;101884.87;;;0.69;95.97
69766;BME280;57039;48.014;21.384;2023-02-28T06:45:20;101880.59;;;0.73;95.92
69766;BME280;57039;48.014;21.384;2023-02-28T06:46:26;101873.66;;;0.72;95.62
69766;BME280;57039;48.014;21.384;2023-02-28T06:47:30;101882.28;;;0.69;95.47
69766;BME280;57039;48.014;21.384;2023-02-28T06:48:34;101877.97;;;0.70;95.11
69766;BME280;57039;48.014;21.384;2023-02-28T06:49:40;101876.28;;;0.75;94.80
69766;BME280;57039;48.014;21.384;2023-02-28T06:50:44;101874.56;;;0.77;94.49
69766;BME280;57039;48.014;21.384;2023-02-28T06:51:53;101865.94;;;0.75;94.16
69766;BME280;57039;48.014;21.384;2023-02-28T06:53:00;101875.47;;;0.80;94.61
69766;BME280;57039;48.014;21.384;2023-02-28T06:54:06;101865.09;;;0.76;94.52
69766;BME280;57039;48.014;21.384;2023-02-28T06:55:11;101875.47;;;0.79;94.76
69766;BME280;57039;48.014;21.384;2023-02-28T06:56:16;101867.66;;;0.70;94.09
69766;BME280;57039;48.014;21.384;2023-02-28T06:57:19;101859.88;;;0.68;94.14
69766;BME280;57039;48.014;21.384;2023-02-28T06:58:22;101864.22;;;0.74;93.66
69766;BME280;57039;48.014;21.384;2023-02-28T06:59:25;101862.53;;;0.79;93.54
69766;BME280;57039;48.014;21.384;2023-02-28T07:00:28;101864.22;;;0.72;93.27
69766;BME280;57039;48.014;21.384;2023-02-28T07:01:32;101860.75;;;0.70;93.66
69766;BME280;57039;48.014;21.384;2023-02-28T07:02:36;101857.31;;;0.70;93.58
69766;BME280;57039;48.014;21.384;2023-02-28T07:03:40;101859.06;;;0.74;93.83
69766;BME280;57039;48.014;21.384;2023-02-28T07:04:43;101866.88;;;0.81;93.13
69766;BME280;57039;48.014;21.384;2023-02-28T07:05:47;101860.87;;;0.84;92.73
69766;BME280;57039;48.014;21.384;2023-02-28T07:06:51;101864.25;;;0.77;92.48
69766;BME280;57039;48.014;21.384;2023-02-28T07:07:54;101865.16;;;0.83;92.98
69766;BME280;57039;48.014;21.384;2023-02-28T07:08:58;101865.16;;;0.86;92.72
69766;BME280;57039;48.014;21.384;2023-02-28T07:10:02;101857.44;;;0.89;92.44
69766;BME280;57039;48.014;21.384;2023-02-28T07:11:06;101873.03;;;1.00;92.67
69766;BME280;57039;48.014;21.384;2023-02-28T07:12:10;101874.72;;;0.98;92.40
69766;BME280;57039;48.014;21.384;2023-02-28T07:13:16;101879.09;;;1.10;92.67
69766;BME280;57039;48.014;21.384;2023-02-28T07:14:19;101874.75;;;1.04;92.39
69766;BME280;57039;48.014;21.384;2023-02-28T07:15:22;101884.22;;;1.04;91.37
69766;BME280;57039;48.014;21.384;2023-02-28T07:16:25;101879.91;;;1.04;91.57
69766;BME280;57039;48.014;21.384;2023-02-28T07:17:29;101885.16;;;1.12;91.95
69766;BME280;57039;48.014;21.384;2023-02-28T07:18:32;101877.44;;;1.20;92.12
69766;BME280;57039;48.014;21.384;2023-02-28T07:19:36;101871.44;;;1.24;92.18
69766;BME280;57039;48.014;21.384;2023-02-28T07:20:39;101877.53;;;1.35;92.10
69766;BME280;57039;48.014;21.384;2023-02-28T07:21:45;101880.13;;;1.40;92.11
69766;BME280;57039;48.014;21.384;2023-02-28T07:22:49;101878.38;;;1.29;91.18
69766;BME280;57039;48.014;21.384;2023-02-28T07:23:58;101886.09;;;1.25;91.28
69766;BME280;57039;48.014;21.384;2023-02-28T07:25:01;101888.69;;;1.31;91.12
69766;BME280;57039;48.014;21.384;2023-02-28T07:26:11;101887.00;;;1.36;91.45
69766;BME280;57039;48.014;21.384;2023-02-28T07:27:15;101886.16;;;1.40;91.34
69766;BME280;57039;48.014;21.384;2023-02-28T07:28:27;101883.56;;;1.40;91.43
69766;BME280;57039;48.014;21.384;2023-02-28T07:29:30;101879.22;;;1.27;91.19
69766;BME280;57039;48.014;21.384;2023-02-28T07:30:33;101889.56;;;1.31;90.70
69766;BME280;57039;48.014;21.384;2023-02-28T07:31:36;101880.97;;;1.37;91.08
69766;BME280;57039;48.014;21.384;2023-02-28T07:32:39;101875.00;;;1.47;91.02
69766;BME280;57039;48.014;21.384;2023-02-28T07:33:42;101878.47;;;1.52;91.33
69766;BME280;57039;48.014;21.384;2023-02-28T07:34:45;101881.84;;;1.39;91.32
69766;BME280;57039;48.014;21.384;2023-02-28T07:35:48;101877.56;;;1.43;91.79
69766;BME280;57039;48.014;21.384;2023-02-28T07:36:55;101885.31;;;1.41;91.08
69766;BME280;57039;48.014;21.384;2023-02-28T07:37:58;101879.31;;;1.48;91.04
69766;BME280;57039;48.014;21.384;2023-02-28T07:39:01;101887.09;;;1.54;91.11
69766;BME280;57039;48.014;21.384;2023-02-28T07:40:09;101888.00;;;1.59;91.31
69766;BME280;57039;48.014;21.384;2023-02-28T07:41:19;101894.91;;;1.67;91.31
69766;BME280;57039;48.014;21.384;2023-02-28T07:42:22;101894.03;;;1.62;90.70
69766;BME280;57039;48.014;21.384;2023-02-28T07:43:26;101891.47;;;1.66;90.86
69766;BME280;57039;48.014;21.384;2023-02-28T07:44:29;101889.75;;;1.73;91.44
69766;BME280;57039;48.014;21.384;2023-02-28T07:45:32;101891.50;;;1.74;90.81
69766;BME280;57039;48.014;21.384;2023-02-28T07:46:37;101891.47;;;1.68;90.69
69766;BME280;57039;48.014;21.384;2023-02-28T07:47:41;101897.56;;;1.80;91.17
69766;BME280;57039;48.014;21.384;2023-02-28T07:48:44;101900.12;;;1.82;90.50
69766;BME280;57039;48.014;21.384;2023-02-28T07:54:38;101897.59;;;1.93;89.79
69766;BME280;57039;48.014;21.384;2023-02-28T07:55:42;101900.16;;;1.94;89.62
69766;BME280;57039;48.014;21.384;2023-02-28T07:56:47;101901.03;;;1.96;89.60
69766;BME280;57039;48.014;21.384;2023-02-28T07:57:50;101901.06;;;1.99;89.96
69766;BME280;57039;48.014;21.384;2023-02-28T07:59:08;101902.81;;;2.07;89.92
69766;BME280;57039;48.014;21.384;2023-02-28T08:00:12;101901.94;;;2.06;89.67
69766;BME280;57039;48.014;21.384;2023-02-28T08:01:16;101900.22;;;2.07;90.07
69766;BME280;57039;48.014;21.384;2023-02-28T08:02:20;101889.88;;;2.13;89.89
69766;BME280;57039;48.014;21.384;2023-02-28T08:03:24;101895.91;;;2.18;88.86
69766;BME280;57039;48.014;21.384;2023-02-28T08:04:27;101885.56;;;2.15;88.87
69766;BME280;57039;48.014;21.384;2023-02-28T08:05:31;101897.66;;;2.25;88.73
69766;BME280;57039;48.014;21.384;2023-02-28T08:06:34;101901.97;;;2.29;87.97
69766;BME280;57039;48.014;21.384;2023-02-28T08:07:37;101891.66;;;2.40;88.04
69766;BME280;57039;48.014;21.384;2023-02-28T08:08:40;101897.69;;;2.46;87.95
69766;BME280;57039;48.014;21.384;2023-02-28T08:09:44;101898.56;;;2.47;87.53
69766;BME280;57039;48.014;21.384;2023-02-28T08:10:47;101891.63;;;2.50;87.08
69766;BME280;57039;48.014;21.384;2023-02-28T08:11:50;101892.50;;;2.60;86.91
69766;BME280;57039;48.014;21.384;2023-02-28T08:12:53;101892.50;;;2.65;87.07
69766;BME280;57039;48.014;21.384;2023-02-28T08:13:56;101890.81;;;2.73;87.26
69766;BME280;57039;48.014;21.384;2023-02-28T08:15:01;101894.25;;;2.61;86.89
69766;BME280;57039;48.014;21.384;2023-02-28T08:16:04;101894.22;;;2.63;87.26
69766;BME280;57039;48.014;21.384;2023-02-28T08:17:09;101889.94;;;2.46;87.30
69766;BME280;57039;48.014;21.384;2023-02-28T08:18:13;101901.16;;;2.58;87.19
69766;BME280;57039;48.014;21.384;2023-02-28T08:19:15;101896.84;;;2.64;87.21
69766;BME280;57039;48.014;21.384;2023-02-28T08:20:18;101896.84;;;2.55;86.88
69766;BME280;57039;48.014;21.384;2023-02-28T08:21:21;101891.66;;;2.58;87.11
69766;BME280;57039;48.014;21.384;2023-02-28T08:22:25;101894.22;;;2.63;87.16
69766;BME280;57039;48.014;21.384;2023-02-28T08:23:28;101894.22;;;2.69;86.59
69766;BME280;57039;48.014;21.384;2023-02-28T08:24:30;101896.84;;;2.70;86.45
69766;BME280;57039;48.014;21.384;2023-02-28T08:25:33;101895.09;;;2.71;86.24